KTVI/TVI METAR and TAF weather

Enter ICAO airport designator
Station Type Date Time Source
KTVI METAR 2019/02/16 17:15 UTC NOAA

KTVI 161715Z AUTO 25007KT 10SM OVC017 21/17 A2985 RMK AO2


Station Type Date Time Source
KTVI Decoded METAR 2019/02/16 17:15 UTC NOAA

Thomasville, GA, United States (KTVI) 30-54-06N 083-52-53W
Feb 16, 2019 - 12:15 PM EST / 2019.02.16 1715 UTC
Wind: from the WSW (250 degrees) at 8 MPH (7 KT):0
Visibility: 10 mile(s):0
Sky conditions: overcast
Temperature: 69 F (21 C)
Dew Point: 62 F (17 C)
Relative Humidity: 77%
Pressure (altimeter): 29.85 in. Hg (1010 hPa)
ob: KTVI 161715Z AUTO 25007KT 10SM OVC017 21/17 A2985 RMK AO2
cycle: 17

Station Type Date Time Source
KTVI TAF UTC NOAA

Error!


Example: see airport list